createdAt,value
2022-09-14T00:05:46.707Z,69.64
2022-09-14T00:12:49.735Z,69.58
2022-09-14T00:19:58.819Z,69.39
2022-09-14T00:27:04.362Z,69.34
2022-09-14T00:34:07.415Z,69.63
2022-09-14T00:41:10.165Z,69.61
2022-09-14T00:48:13.351Z,69.65
2022-09-14T00:55:14.937Z,69.60
2022-09-14T01:02:03.330Z,69.54
2022-09-14T01:09:11.281Z,69.31
2022-09-14T01:16:36.775Z,69.24
2022-09-14T01:23:33.735Z,69.38
2022-09-14T01:30:43.021Z,69.42
2022-09-14T01:37:48.668Z,69.75
2022-09-14T01:44:54.055Z,70.07
2022-09-14T01:51:52.274Z,70.33
2022-09-14T01:58:55.268Z,70.55
2022-09-14T02:06:06.406Z,70.48
2022-09-14T02:13:08.962Z,70.36
2022-09-14T02:20:11.907Z,70.37
2022-09-14T02:27:14.670Z,70.21
2022-09-14T02:34:38.770Z,70.31
2022-09-14T02:41:58.151Z,70.47
2022-09-14T02:49:12.928Z,70.57
2022-09-14T02:55:54.452Z,70.41
2022-09-14T03:02:57.427Z,70.15
2022-09-14T03:09:27.997Z,69.99
2022-09-14T03:16:13.896Z,69.96
2022-09-14T03:23:05.997Z,70.00
2022-09-14T03:29:53.787Z,70.03
2022-09-14T03:36:32.893Z,70.12
2022-09-14T03:43:14.233Z,70.26
2022-09-14T03:49:53.276Z,70.30
2022-09-14T03:56:50.063Z,70.21
2022-09-14T04:03:52.997Z,70.36
2022-09-14T04:10:39.276Z,70.54
2022-09-14T04:17:32.923Z,70.69
2022-09-14T04:24:15.179Z,71.00
2022-09-14T04:31:18.830Z,71.21
2022-09-14T04:38:21.834Z,71.28
2022-09-14T04:45:24.882Z,71.42
2022-09-14T04:52:27.568Z,71.43
2022-09-14T04:59:30.400Z,71.64
2022-09-14T05:06:33.599Z,71.67
2022-09-14T05:13:19.872Z,72.09
2022-09-14T05:20:04.223Z,72.00
2022-09-14T05:27:02.463Z,72.19
2022-09-14T05:33:40.985Z,72.12
2022-09-14T05:40:24.358Z,71.99
2022-09-14T05:47:27.487Z,71.99
2022-09-14T05:53:42.478Z,71.86
2022-09-14T06:00:45.447Z,71.83
2022-09-14T06:07:46.759Z,71.69
2022-09-14T06:14:49.973Z,71.32
2022-09-14T06:21:53.041Z,71.01
2022-09-14T06:28:16.933Z,70.74
2022-09-14T06:35:19.968Z,70.57
2022-09-14T06:42:13.265Z,70.36
2022-09-14T06:49:05.711Z,69.94
2022-09-14T06:56:07.409Z,69.93
2022-09-14T07:02:55.410Z,69.68
2022-09-14T07:09:51.153Z,69.51
2022-09-14T07:16:46.715Z,69.15
2022-09-14T07:23:28.562Z,69.08
2022-09-14T07:30:30.361Z,69.00
2022-09-14T07:37:11.733Z,68.57
2022-09-14T07:44:14.401Z,68.50
2022-09-14T07:51:17.321Z,68.56
2022-09-14T07:58:19.889Z,68.61
2022-09-14T08:05:22.680Z,68.60
2022-09-14T08:12:05.426Z,67.79
2022-09-14T08:18:48.040Z,67.70
2022-09-14T08:25:30.969Z,67.47
2022-09-14T08:32:14.869Z,67.61
2022-09-14T08:38:56.232Z,67.21
2022-09-14T08:45:45.320Z,67.46
2022-09-14T08:52:10.116Z,66.86
2022-09-14T08:58:48.262Z,66.81
2022-09-14T09:05:43.191Z,66.69
2022-09-14T09:12:25.676Z,66.40
2022-09-14T09:19:28.711Z,66.13
2022-09-14T09:26:13.351Z,65.75
2022-09-14T09:32:41.319Z,65.61
2022-09-14T09:39:34.749Z,65.51
2022-09-14T09:46:46.768Z,64.70
2022-09-14T09:53:51.348Z,64.63
2022-09-14T10:00:50.299Z,63.80
2022-09-14T10:07:53.469Z,63.71
2022-09-14T10:14:59.578Z,63.28
2022-09-14T10:22:17.208Z,63.08
2022-09-14T10:29:32.109Z,63.28
2022-09-14T10:36:49.972Z,63.26
2022-09-14T10:43:50.748Z,63.13
2022-09-14T10:51:02.825Z,63.06
2022-09-14T10:58:26.422Z,63.72
2022-09-14T11:05:41.711Z,63.94
2022-09-14T11:12:34.766Z,64.54
2022-09-14T11:19:18.029Z,64.93
2022-09-14T11:25:42.194Z,65.20
2022-09-14T11:32:20.522Z,65.63
2022-09-14T11:38:37.743Z,66.29
2022-09-14T11:45:15.589Z,67.14
2022-09-14T11:52:19.270Z,67.71
2022-09-14T11:58:53.223Z,68.04
2022-09-14T12:05:30.008Z,68.71
2022-09-14T12:11:48.395Z,69.96
2022-09-14T12:17:59.270Z,70.64
2022-09-14T12:24:24.262Z,71.07
2022-09-14T12:31:09.067Z,71.89
2022-09-14T12:38:07.107Z,72.38
2022-09-14T12:45:06.756Z,72.67
2022-09-14T12:51:36.218Z,72.83
2022-09-14T12:58:29.491Z,73.15
2022-09-14T13:05:24.985Z,74.00
2022-09-14T13:12:20.638Z,74.53
2022-09-14T13:19:13.193Z,75.11
2022-09-14T13:26:14.059Z,75.29
2022-09-14T13:33:16.708Z,75.57
2022-09-14T13:40:18.447Z,75.82
2022-09-14T13:47:21.435Z,75.83
2022-09-14T13:53:52.965Z,76.10
2022-09-14T14:00:52.907Z,75.77
2022-09-14T14:08:05.085Z,74.82
2022-09-14T14:15:16.872Z,75.17
2022-09-14T14:22:14.164Z,75.36
2022-09-14T14:28:48.675Z,75.36
2022-09-14T14:35:23.998Z,75.40
2022-09-14T14:42:17.303Z,75.65
2022-09-14T14:48:57.913Z,75.94
2022-09-14T14:55:29.012Z,76.01
2022-09-14T15:01:48.486Z,76.24
2022-09-14T15:08:33.070Z,76.58
2022-09-14T15:15:28.236Z,76.71
2022-09-14T15:21:36.612Z,76.91
2022-09-14T15:27:50.542Z,77.09
2022-09-14T15:34:12.120Z,77.11
2022-09-14T15:40:23.896Z,77.53
2022-09-14T15:46:34.190Z,77.46
2022-09-14T15:53:26.320Z,77.51
2022-09-14T16:00:26.899Z,77.61
2022-09-14T16:07:22.946Z,77.83
2022-09-14T16:14:17.849Z,78.12
2022-09-14T16:21:15.726Z,78.55
2022-09-14T16:27:53.979Z,78.72
2022-09-14T16:34:50.721Z,78.75
2022-09-14T16:41:12.480Z,78.73
2022-09-14T16:48:03.950Z,78.68
2022-09-14T16:53:53.000Z,78.72
2022-09-14T16:59:28.602Z,78.68
2022-09-14T17:05:53.970Z,78.63
2022-09-14T17:11:49.014Z,78.69
2022-09-14T17:18:34.546Z,78.71
2022-09-14T17:24:56.648Z,78.69
2022-09-14T17:31:49.721Z,78.92
2022-09-14T17:37:43.876Z,79.17
2022-09-14T17:44:35.800Z,79.47
2022-09-14T17:50:24.030Z,79.74
2022-09-14T17:57:27.614Z,79.82
2022-09-14T18:03:42.934Z,79.84
2022-09-14T18:09:38.511Z,80.00
2022-09-14T18:15:20.587Z,80.07
2022-09-14T18:22:23.860Z,80.23
2022-09-14T18:28:41.782Z,80.25
2022-09-14T18:35:47.656Z,80.23
2022-09-14T18:42:17.322Z,80.25
2022-09-14T18:48:39.183Z,80.52
2022-09-14T18:54:28.028Z,80.52
2022-09-14T19:00:12.255Z,80.51
2022-09-14T19:06:15.934Z,80.72
2022-09-14T19:11:53.030Z,80.53
2022-09-14T19:17:50.932Z,80.58
2022-09-14T19:23:19.877Z,80.64
2022-09-14T19:29:23.125Z,80.69
2022-09-14T19:35:36.562Z,80.72
2022-09-14T19:41:09.221Z,80.76
2022-09-14T19:46:31.441Z,80.70
2022-09-14T19:52:04.591Z,80.72
2022-09-14T19:57:59.081Z,80.77
2022-09-14T20:03:53.795Z,80.75
2022-09-14T20:10:29.576Z,80.96
2022-09-14T20:16:38.893Z,80.76
2022-09-14T20:23:17.200Z,80.82
2022-09-14T20:30:13.281Z,81.01
2022-09-14T20:36:23.656Z,80.86
2022-09-14T20:42:41.911Z,80.82
2022-09-14T20:49:38.517Z,80.81
2022-09-14T20:56:24.166Z,80.82
2022-09-14T21:02:17.430Z,80.99
2022-09-14T21:09:11.900Z,81.12
2022-09-14T21:16:07.102Z,81.12
2022-09-14T21:22:32.276Z,81.13
2022-09-14T21:28:57.553Z,81.36
2022-09-14T21:35:47.872Z,81.35
2022-09-14T21:42:02.637Z,81.25
2022-09-14T21:48:11.072Z,81.27
2022-09-14T21:54:28.496Z,81.34
2022-09-14T22:01:09.480Z,81.43
2022-09-14T22:08:02.323Z,81.42
2022-09-14T22:14:18.173Z,81.32
2022-09-14T22:19:55.080Z,81.49
2022-09-14T22:26:37.779Z,81.44
2022-09-14T22:33:33.046Z,81.56
2022-09-14T22:39:28.919Z,81.60
2022-09-14T22:46:14.795Z,81.71
2022-09-14T22:53:18.157Z,81.86
2022-09-14T22:59:29.250Z,81.64
2022-09-14T23:05:52.177Z,81.46
2022-09-14T23:11:44.636Z,81.59
2022-09-14T23:17:23.982Z,81.83
2022-09-14T23:23:34.987Z,82.24
2022-09-14T23:30:03.809Z,82.06
2022-09-14T23:36:47.400Z,81.99
2022-09-14T23:43:34.067Z,81.85
2022-09-14T23:49:49.665Z,81.92
2022-09-14T23:56:52.562Z,81.82
